Time;durP1;ratioP1;P1;durP2;ratioP2;P2;SDS_P1;SDS_P2;PMS_P1;PMS_P2;Temp;Humidity;BMP_temperature;BMP_pressure;BME280_temperature;BME280_humidity;BME280_pressure;Samples;Min_cycle;Max_cycle;Signal;HPM_P1;HPM_P2
2021/06/17 05:20:51;;;;;;;9.65;4.97;;;19.90;69.90;;;;;;5151193;27;20123;-48
2021/06/17 05:23:21;;;;;;;9.10;5.28;;;20.00;69.90;;;;;;5151678;27;20045;-47
2021/06/17 05:25:48;;;;;;;7.55;4.65;;;20.00;69.80;;;;;;5151619;27;20483;-47
2021/06/17 05:28:17;;;;;;;7.20;4.60;;;20.00;69.70;;;;;;5151087;27;20487;-48
2021/06/17 05:30:45;;;;;;;8.45;4.50;;;20.00;69.60;;;;;;5150978;27;20403;-47
2021/06/17 05:33:11;;;;;;;8.90;4.22;;;20.00;69.40;;;;;;5123356;27;62112;-48
2021/06/17 05:35:37;;;;;;;13.52;5.10;;;20.00;69.30;;;;;;5089826;28;20447;-48
2021/06/17 05:38:03;;;;;;;6.95;4.50;;;20.10;69.30;;;;;;5088748;28;20074;-48
2021/06/17 05:40:29;;;;;;;8.70;5.00;;;20.10;69.30;;;;;;5089234;28;20028;-47
2021/06/17 05:42:54;;;;;;;11.02;4.93;;;20.10;69.40;;;;;;5089733;28;20025;-48
2021/06/17 05:45:20;;;;;;;10.07;5.35;;;20.10;69.30;;;;;;5089558;28;20385;-47
2021/06/17 05:47:46;;;;;;;8.82;4.40;;;20.10;69.10;;;;;;5089646;28;20024;-47
2021/06/17 05:50:11;;;;;;;9.45;4.97;;;20.10;69.10;;;;;;5088701;28;20044;-48
2021/06/17 05:52:37;;;;;;;10.38;4.25;;;20.10;69.10;;;;;;5089299;28;20077;-48
2021/06/17 05:55:03;;;;;;;10.82;4.75;;;20.10;69.00;;;;;;5089661;28;20024;-47
2021/06/17 05:57:29;;;;;;;5.88;3.80;;;20.10;69.20;;;;;;5089635;28;20025;-48
2021/06/17 05:59:54;;;;;;;8.10;3.95;;;20.10;69.10;;;;;;5089365;28;20099;-47
2021/06/17 06:02:23;;;;;;;11.65;4.65;;;20.10;69.10;;;;;;5088755;28;20023;-47
2021/06/17 06:04:51;;;;;;;6.65;4.47;;;20.20;69.10;;;;;;5087033;28;20073;-48
2021/06/17 06:07:17;;;;;;;6.63;4.95;;;20.20;69.10;;;;;;5089694;28;20354;-48
2021/06/17 06:09:42;;;;;;;7.70;5.07;;;20.20;69.10;;;;;;5089154;28;20446;-48
2021/06/17 06:12:10;;;;;;;8.70;5.28;;;20.20;69.00;;;;;;5088676;28;20107;-48
2021/06/17 06:14:36;;;;;;;7.43;4.32;;;20.20;69.00;;;;;;5088860;28;20111;-48
2021/06/17 06:17:03;;;;;;;8.27;4.78;;;20.20;69.00;;;;;;5089441;28;20020;-48
2021/06/17 06:19:30;;;;;;;10.68;4.78;;;20.20;69.00;;;;;;5089149;28;20086;-48
2021/06/17 06:21:56;;;;;;;7.22;4.47;;;20.20;69.00;;;;;;5074405;28;20033;-48
2021/06/17 06:24:21;;;;;;;6.68;4.30;;;20.20;68.90;;;;;;5075173;28;20107;-48
2021/06/17 06:26:47;;;;;;;12.07;5.03;;;20.30;68.90;;;;;;5075395;28;20028;-48
2021/06/17 06:29:13;;;;;;;7.35;4.32;;;20.30;68.90;;;;;;5075351;28;20094;-48
2021/06/17 06:31:40;;;;;;;7.95;4.25;;;20.30;68.90;;;;;;5074950;28;20086;-48
2021/06/17 06:34:05;;;;;;;8.18;4.60;;;20.30;68.80;;;;;;5074703;28;20028;-48
2021/06/17 06:36:31;;;;;;;10.02;5.35;;;20.30;68.80;;;;;;5075201;28;20025;-48
2021/06/17 06:38:57;;;;;;;10.63;5.68;;;20.30;68.80;;;;;;5075168;28;20035;-48
2021/06/17 06:41:22;;;;;;;9.65;4.78;;;20.30;68.70;;;;;;5074560;28;20032;-48
2021/06/17 06:43:48;;;;;;;11.25;5.07;;;20.30;68.70;;;;;;5075137;28;20032;-48
2021/06/17 06:46:14;;;;;;;12.98;5.20;;;20.40;68.80;;;;;;5075049;28;20074;-48
2021/06/17 06:48:39;;;;;;;12.30;5.63;;;20.40;68.70;;;;;;5075426;28;20108;-48
2021/06/17 06:51:05;;;;;;;7.43;5.30;;;20.40;68.70;;;;;;5074085;28;20028;-49
2021/06/17 06:53:31;;;;;;;15.30;4.68;;;20.40;68.60;;;;;;5075212;28;20440;-48
2021/06/17 06:55:56;;;;;;;10.45;5.20;;;20.40;68.60;;;;;;5074888;28;20482;-48
2021/06/17 06:58:22;;;;;;;12.05;5.05;;;20.40;68.50;;;;;;5074982;28;20127;-48
2021/06/17 07:00:47;;;;;;;8.43;5.50;;;20.40;68.50;;;;;;5073885;28;20359;-48
2021/06/17 07:03:13;;;;;;;10.05;5.50;;;20.40;68.40;;;;;;5075106;28;20029;-48
2021/06/17 07:05:39;;;;;;;11.43;5.30;;;20.40;68.60;;;;;;5074682;28;20025;-48
2021/06/17 07:08:11;;;;;;;10.93;4.68;;;20.40;68.50;;;;;;5073119;28;20122;-48
2021/06/17 07:10:40;;;;;;;14.80;5.25;;;20.40;68.40;;;;;;5074255;28;20055;-48
2021/06/17 07:13:06;;;;;;;11.50;5.13;;;20.50;68.40;;;;;;5058775;28;20047;-48
2021/06/17 07:15:32;;;;;;;15.63;5.18;;;20.50;68.80;;;;;;5054285;28;20367;-48
2021/06/17 07:17:57;;;;;;;10.75;6.18;;;20.50;68.30;;;;;;5054646;28;20028;-48
2021/06/17 07:20:23;;;;;;;11.48;5.85;;;20.50;68.30;;;;;;5053446;28;20060;-48
2021/06/17 07:22:48;;;;;;;7.95;4.90;;;20.50;68.30;;;;;;5054420;28;20027;-48
2021/06/17 07:25:14;;;;;;;8.38;4.55;;;20.50;68.40;;;;;;5054102;28;20333;-48
2021/06/17 07:27:40;;;;;;;10.15;5.13;;;20.50;68.30;;;;;;5054465;28;20029;-48
2021/06/17 07:30:06;;;;;;;12.98;6.10;;;20.50;68.30;;;;;;5053805;28;20037;-49
2021/06/17 07:32:32;;;;;;;10.48;5.90;;;20.50;68.20;;;;;;5052920;28;20116;-48
2021/06/17 07:34:57;;;;;;;9.38;5.75;;;20.50;68.30;;;;;;5054319;28;20112;-48
2021/06/17 07:37:23;;;;;;;8.52;4.47;;;20.60;68.30;;;;;;5054075;28;20059;-48
2021/06/17 07:39:49;;;;;;;10.63;5.43;;;20.60;68.40;;;;;;5053585;28;20029;-48
2021/06/17 07:42:14;;;;;;;9.68;5.22;;;20.60;68.30;;;;;;5053541;28;20047;-48
2021/06/17 07:44:40;;;;;;;11.82;5.68;;;20.60;68.30;;;;;;5053992;28;20025;-48
2021/06/17 07:47:06;;;;;;;9.23;5.88;;;20.60;68.40;;;;;;5053924;28;20025;-48
2021/06/17 07:49:32;;;;;;;6.38;4.72;;;20.60;68.40;;;;;;5053873;28;20105;-48
2021/06/17 07:51:58;;;;;;;6.88;4.72;;;20.60;68.50;;;;;;5053170;28;20104;-48
2021/06/17 07:54:24;;;;;;;11.18;4.60;;;20.70;68.50;;;;;;5053890;28;20032;-49
2021/06/17 07:56:50;;;;;;;8.27;5.07;;;20.70;68.60;;;;;;5073855;28;20359;-48
2021/06/17 07:59:18;;;;;;;19.50;5.55;;;20.70;68.50;;;;;;5073744;28;20044;-48
2021/06/17 08:01:45;;;;;;;7.55;4.30;;;20.70;68.70;;;;;;5072845;28;20032;-49
2021/06/17 08:04:11;;;;;;;8.82;5.18;;;20.70;68.80;;;;;;5073574;28;20055;-48
2021/06/17 08:06:37;;;;;;;13.52;5.15;;;20.70;68.70;;;;;;5071583;28;20317;-48
2021/06/17 08:09:04;;;;;;;7.75;4.78;;;20.70;68.80;;;;;;5073304;28;20036;-48
2021/06/17 08:11:30;;;;;;;9.77;4.32;;;20.70;68.70;;;;;;5072801;28;20028;-48
2021/06/17 08:13:55;;;;;;;11.68;5.32;;;20.80;68.80;;;;;;5073675;28;20036;-48
2021/06/17 08:16:21;;;;;;;10.45;6.13;;;20.80;68.90;;;;;;5071947;28;20025;-48
2021/06/17 08:18:47;;;;;;;10.50;5.88;;;20.70;68.90;;;;;;5073284;28;20024;-48
2021/06/17 08:21:12;;;;;;;6.47;4.05;;;20.80;68.80;;;;;;5071296;28;20028;-48
2021/06/17 08:23:38;;;;;;;12.13;5.88;;;20.80;68.70;;;;;;5073047;28;20028;-49
2021/06/17 08:26:04;;;;;;;11.85;5.03;;;20.80;68.70;;;;;;5073210;28;20359;-48
2021/06/17 08:28:30;;;;;;;8.00;4.60;;;20.80;68.60;;;;;;5073419;28;20028;-48
2021/06/17 08:30:56;;;;;;;7.32;4.68;;;20.90;68.70;;;;;;5072233;28;20028;-49
2021/06/17 08:33:22;;;;;;;8.63;4.85;;;20.80;68.70;;;;;;5072850;28;20032;-48
2021/06/17 08:35:52;;;;;;;10.57;6.57;;;20.90;68.60;;;;;;5071655;28;20037;-48
2021/06/17 08:38:21;;;;;;;7.15;4.80;;;20.80;68.50;;;;;;5072950;28;20032;-48
2021/06/17 08:40:47;;;;;;;11.10;5.53;;;20.90;68.50;;;;;;5072502;28;20070;-48
2021/06/17 08:43:13;;;;;;;11.65;5.50;;;20.90;68.40;;;;;;5072948;28;20032;-48
2021/06/17 08:45:39;;;;;;;11.93;6.15;;;20.90;68.40;;;;;;5073026;28;20021;-48
2021/06/17 08:48:05;;;;;;;10.32;5.07;;;20.90;68.40;;;;;;5072741;28;20061;-48
2021/06/17 08:50:31;;;;;;;21.00;5.40;;;20.90;68.50;;;;;;5070825;28;20033;-48
2021/06/17 08:52:57;;;;;;;11.10;5.43;;;20.90;68.40;;;;;;5071497;28;20031;-48
2021/06/17 08:55:25;;;;;;;11.45;5.13;;;20.90;68.40;;;;;;5072907;28;20032;-48
2021/06/17 08:57:53;;;;;;;16.23;4.82;;;20.90;68.30;;;;;;5073112;28;20027;-48
2021/06/17 09:00:21;;;;;;;12.23;5.80;;;21.00;68.40;;;;;;5071977;28;20029;-48
2021/06/17 09:02:56;;;;;;;11.77;4.35;;;21.00;68.30;;;;;;5072945;28;20096;-48
2021/06/17 09:05:23;;;;;;;10.25;4.63;;;21.00;68.30;;;;;;5072680;28;20059;-48
2021/06/17 09:07:49;;;;;;;10.20;4.90;;;21.00;68.30;;;;;;5072836;28;20024;-48
2021/06/17 09:10:15;;;;;;;15.32;4.95;;;21.00;68.20;;;;;;5063730;28;20079;-48
2021/06/17 09:12:46;;;;;;;6.53;4.20;;;21.00;68.00;;;;;;5052934;28;20105;-48
2021/06/17 09:15:13;;;;;;;15.48;4.78;;;21.00;68.20;;;;;;5057965;28;20485;-48
2021/06/17 09:17:39;;;;;;;11.65;6.03;;;21.00;68.20;;;;;;5072549;28;20021;-48
2021/06/17 09:20:07;;;;;;;22.00;5.93;;;21.00;68.20;;;;;;5071391;28;20029;-48
2021/06/17 09:22:35;;;;;;;14.88;5.00;;;21.00;68.20;;;;;;5052102;28;20040;-48
2021/06/17 09:25:00;;;;;;;8.38;5.03;;;21.00;68.10;;;;;;5052659;28;20032;-48
2021/06/17 09:27:39;;;;;;;10.73;5.15;;;21.00;69.00;;;;;;5052331;28;20025;-48
2021/06/17 09:30:10;;;;;;;14.65;5.95;;;21.00;68.20;;;;;;5049629;28;20041;-49
2021/06/17 09:32:38;;;;;;;8.50;5.15;;;21.10;68.20;;;;;;5054681;28;20502;-48
2021/06/17 09:35:24;;;;;;;13.80;5.55;;;21.10;68.10;;;;;;5071994;28;20061;-49
2021/06/17 09:37:51;;;;;;;6.63;4.30;;;21.10;68.10;;;;;;5072302;28;20028;-48
2021/06/17 09:40:28;;;;;;;8.07;4.50;;;21.10;68.30;;;;;;5071622;28;20143;-48
2021/06/17 09:43:24;;;;;;;22.23;6.00;;;21.10;68.20;;;;;;5072128;28;20435;-49
2021/06/17 09:45:51;;;;;;;9.80;4.75;;;21.10;68.20;;;;;;5072582;28;20032;-48
2021/06/17 09:48:49;;;;;;;7.30;4.75;;;21.10;68.30;;;;;;5072089;28;20038;-48
2021/06/17 09:51:44;;;;;;;9.52;4.40;;;21.10;68.30;;;;;;5071442;28;20020;-48
2021/06/17 09:54:17;;;;;;;10.95;4.72;;;21.10;68.30;;;;;;5072527;28;20074;-48
2021/06/17 09:56:48;;;;;;;7.50;5.03;;;21.10;68.20;;;;;;5074533;28;20459;-48
2021/06/17 09:59:30;;;;;;;8.68;4.35;;;21.10;68.10;;;;;;5076091;28;20017;-48
2021/06/17 10:01:55;;;;;;;15.23;4.15;;;21.10;68.20;;;;;;5075045;28;20029;-48
2021/06/17 10:04:23;;;;;;;9.65;4.00;;;21.10;68.20;;;;;;5075623;28;20030;-48
2021/06/17 10:06:50;;;;;;;8.25;3.55;;;21.10;68.30;;;;;;5075470;28;20036;-48
2021/06/17 10:09:19;;;;;;;10.07;3.72;;;21.10;68.20;;;;;;5073600;28;20032;-48
2021/06/17 10:11:46;;;;;;;9.82;3.55;;;21.10;68.20;;;;;;5074825;28;20025;-48
2021/06/17 10:14:12;;;;;;;11.73;3.65;;;21.20;68.20;;;;;;5075432;28;20436;-48
2021/06/17 10:16:39;;;;;;;7.65;4.30;;;21.10;68.20;;;;;;5075606;28;20028;-48
2021/06/17 10:19:06;;;;;;;5.53;3.78;;;21.10;68.30;;;;;;5075265;28;20352;-48
2021/06/17 10:21:32;;;;;;;7.15;4.00;;;21.10;68.30;;;;;;5074954;28;20028;-48
2021/06/17 10:24:10;;;;;;;5.00;3.40;;;21.10;68.40;;;;;;5075059;28;20028;-48
2021/06/17 10:26:52;;;;;;;10.77;3.50;;;21.20;68.30;;;;;;5075585;28;20070;-48
2021/06/17 10:29:28;;;;;;;3.28;2.67;;;21.10;68.50;;;;;;5054056;28;20040;-48
2021/06/17 10:31:58;;;;;;;8.50;3.35;;;21.20;68.50;;;;;;5054061;28;20044;-48
2021/06/17 10:34:24;;;;;;;5.55;3.42;;;21.20;68.40;;;;;;5054731;28;20083;-48
2021/06/17 10:37:19;;;;;;;5.65;3.00;;;21.20;68.50;;;;;;5053161;28;20309;-48
2021/06/17 10:40:04;;;;;;;5.32;2.75;;;21.20;68.40;;;;;;5055375;28;20367;-48
2021/06/17 10:42:42;;;;;;;6.22;3.05;;;21.10;68.50;;;;;;5054896;28;20037;-48
2021/06/17 10:45:33;;;;;;;4.47;3.45;;;21.20;68.30;;;;;;5054792;28;20056;-48
2021/06/17 10:48:07;;;;;;;4.15;3.10;;;21.10;68.30;;;;;;5055040;28;20025;-48
2021/06/17 10:50:47;;;;;;;5.65;2.92;;;21.20;68.40;;;;;;5054405;28;20127;-48
2021/06/17 10:53:20;;;;;;;9.95;3.40;;;21.10;68.20;;;;;;5055133;28;20056;-48
2021/06/17 10:56:03;;;;;;;5.30;3.25;;;21.20;68.20;;;;;;5055127;28;20029;-48
2021/06/17 10:58:41;;;;;;;5.43;3.40;;;21.10;68.10;;;;;;5054826;28;20314;-48
2021/06/17 11:01:30;;;;;;;3.78;2.75;;;21.10;68.10;;;;;;5071076;28;20021;-48
2021/06/17 11:04:04;;;;;;;11.43;3.10;;;21.20;68.10;;;;;;5074504;28;20374;-48
2021/06/17 11:06:48;;;;;;;15.13;3.38;;;21.20;68.30;;;;;;5068754;28;20278;-48
2021/06/17 11:09:35;;;;;;;3.92;2.80;;;21.10;68.40;;;;;;5068465;28;20526;-47
2021/06/17 11:12:03;;;;;;;4.25;2.63;;;21.20;68.50;;;;;;5073590;28;20513;-48
2021/06/17 11:14:38;;;;;;;6.40;3.20;;;21.20;68.40;;;;;;5074179;28;20047;-48
2021/06/17 11:17:25;;;;;;;5.60;3.00;;;21.20;68.40;;;;;;5074445;28;20029;-48
2021/06/17 11:20:01;;;;;;;5.13;3.53;;;21.20;68.50;;;;;;5074055;28;20032;-48
2021/06/17 11:22:40;;;;;;;5.97;3.50;;;21.20;68.60;;;;;;5073693;28;20107;-47
2021/06/17 11:25:16;;;;;;;5.00;3.30;;;21.20;68.60;;;;;;5074078;28;20055;-48
2021/06/17 11:28:04;;;;;;;5.85;3.30;;;21.10;68.60;;;;;;5072321;28;20037;-48
2021/06/17 11:30:39;;;;;;;5.30;3.38;;;21.20;68.60;;;;;;5073490;28;20127;-48
2021/06/17 11:33:16;;;;;;;8.93;3.55;;;21.20;68.60;;;;;;5074038;28;20040;-48
2021/06/17 11:35:57;;;;;;;8.90;3.28;;;21.20;68.40;;;;;;5073488;28;20044;-47
2021/06/17 11:38:30;;;;;;;2.95;2.60;;;21.20;68.30;;;;;;5064211;28;20340;-47
2021/06/17 11:40:56;;;;;;;9.15;3.45;;;21.20;68.30;;;;;;5062106;28;20419;-48
2021/06/17 11:43:26;;;;;;;12.07;3.22;;;21.20;68.30;;;;;;5064566;28;20116;-48
2021/06/17 11:45:52;;;;;;;6.63;3.70;;;21.10;68.30;;;;;;5061931;28;20370;-48
2021/06/17 11:48:21;;;;;;;9.10;3.28;;;21.10;68.40;;;;;;5060116;28;20366;-48
2021/06/17 11:50:52;;;;;;;4.25;3.22;;;21.10;68.20;;;;;;5060857;28;20029;-48
2021/06/17 11:53:22;;;;;;;8.95;2.83;;;21.10;68.20;;;;;;5064444;28;20029;-48
2021/06/17 11:55:49;;;;;;;4.70;3.13;;;21.10;68.30;;;;;;5056353;28;20033;-48
2021/06/17 11:58:15;;;;;;;4.63;3.10;;;21.20;68.40;;;;;;5053706;28;20086;-48
2021/06/17 12:00:41;;;;;;;9.75;3.83;;;21.10;68.40;;;;;;5067065;28;20451;-48
2021/06/17 12:03:23;;;;;;;10.07;4.10;;;21.20;68.50;;;;;;5073638;28;20118;-47
2021/06/17 12:05:49;;;;;;;4.03;3.50;;;21.20;68.50;;;;;;5071292;28;20537;-48
2021/06/17 12:08:15;;;;;;;4.88;3.38;;;21.20;69.40;;;;;;5073555;28;20115;-48
2021/06/17 12:10:47;;;;;;;7.43;3.22;;;21.20;68.60;;;;;;5072864;28;20166;-48
2021/06/17 12:13:13;;;;;;;8.45;3.33;;;21.20;68.60;;;;;;5073180;28;20079;-48
2021/06/17 12:15:43;;;;;;;4.00;3.03;;;21.10;68.50;;;;;;5071674;28;20033;-47
2021/06/17 12:18:10;;;;;;;5.28;3.28;;;21.20;68.50;;;;;;5072915;28;20027;-48
2021/06/17 12:20:46;;;;;;;7.72;3.60;;;21.10;68.40;;;;;;5072315;28;20581;-48
2021/06/17 12:23:14;;;;;;;4.25;2.60;;;21.10;68.40;;;;;;5073198;28;20109;-48
2021/06/17 12:25:42;;;;;;;4.10;3.00;;;21.10;68.50;;;;;;5072846;28;20031;-48
2021/06/17 12:28:13;;;;;;;6.10;3.35;;;21.10;68.50;;;;;;5073083;28;20039;-47
2021/06/17 12:30:41;;;;;;;10.68;3.45;;;21.10;68.50;;;;;;5072588;28;20029;-48
2021/06/17 12:33:13;;;;;;;10.60;3.33;;;21.10;68.50;;;;;;5069704;28;20027;-48
2021/06/17 12:35:42;;;;;;;6.43;2.97;;;21.10;68.50;;;;;;5072662;28;20032;-48
2021/06/17 12:38:09;;;;;;;6.07;3.45;;;21.00;68.30;;;;;;5073090;28;20110;-48
2021/06/17 12:40:43;;;;;;;7.10;3.60;;;21.00;68.30;;;;;;5072349;28;20039;-48
2021/06/17 12:43:18;;;;;;;6.03;3.00;;;21.10;68.30;;;;;;5072959;28;20025;-48
2021/06/17 12:46:01;;;;;;;6.88;3.42;;;21.10;68.20;;;;;;5072919;28;20039;-47
2021/06/17 12:53:57;;;;;;;12.32;3.38;;;21.00;68.10;;;;;;5070822;28;20039;-48
2021/06/17 12:56:22;;;;;;;6.90;3.50;;;21.00;68.10;;;;;;5073025;28;20036;-48
2021/06/17 12:58:52;;;;;;;4.35;3.00;;;21.10;68.10;;;;;;5072152;28;20439;-48
2021/06/17 13:01:21;;;;;;;3.60;2.75;;;21.10;68.10;;;;;;5071309;28;20508;-48
2021/06/17 13:03:48;;;;;;;5.45;3.20;;;21.10;68.10;;;;;;5072932;28;20463;-48
2021/06/17 13:06:32;;;;;;;4.38;3.30;;;21.10;68.00;;;;;;5072813;28;20028;-47
2021/06/17 13:08:57;;;;;;;5.70;3.47;;;21.00;67.90;;;;;;5071227;28;20047;-48
2021/06/17 13:11:27;;;;;;;5.10;3.45;;;21.10;68.20;;;;;;5071733;28;20016;-47
2021/06/17 13:14:01;;;;;;;4.55;3.42;;;21.10;68.20;;;;;;5072527;28;20458;-48
2021/06/17 13:16:27;;;;;;;10.15;3.80;;;21.10;68.30;;;;;;5072808;28;20028;-48
2021/06/17 13:18:52;;;;;;;8.35;3.28;;;21.10;68.20;;;;;;5071894;28;20028;-48
2021/06/17 13:21:18;;;;;;;6.18;2.78;;;21.10;68.30;;;;;;5071537;28;20024;-47
2021/06/17 13:23:43;;;;;;;5.50;3.30;;;21.10;68.20;;;;;;5072649;28;20351;-48
2021/06/17 13:26:14;;;;;;;4.65;2.53;;;21.10;68.20;;;;;;5072714;28;20436;-48
2021/06/17 13:28:43;;;;;;;8.70;3.25;;;21.10;68.30;;;;;;5072611;28;20025;-48
2021/06/17 13:31:17;;;;;;;4.28;3.03;;;21.10;68.20;;;;;;5073714;28;20115;-48
2021/06/17 13:33:43;;;;;;;5.82;3.45;;;21.10;68.20;;;;;;5076518;28;20075;-48
2021/06/17 13:36:10;;;;;;;5.13;2.90;;;21.10;68.20;;;;;;5076234;28;20029;-48
2021/06/17 13:38:39;;;;;;;4.22;3.17;;;21.10;68.20;;;;;;5076467;28;20031;-48
2021/06/17 13:41:05;;;;;;;10.85;3.85;;;21.10;68.10;;;;;;5075205;28;20107;-48
2021/06/17 13:43:31;;;;;;;4.53;3.35;;;21.10;68.20;;;;;;5076332;28;20116;-48
2021/06/17 13:45:57;;;;;;;11.60;3.20;;;21.10;68.10;;;;;;5075661;28;20025;-48
2021/06/17 13:48:23;;;;;;;7.63;3.30;;;21.10;68.10;;;;;;5076437;28;20086;-48
2021/06/17 13:50:49;;;;;;;4.85;3.67;;;21.10;68.20;;;;;;5075431;28;20060;-48
2021/06/17 13:53:15;;;;;;;4.28;3.17;;;21.10;68.20;;;;;;5076100;28;20063;-48
2021/06/17 13:55:43;;;;;;;8.85;3.20;;;21.10;68.20;;;;;;5076050;28;20048;-48
2021/06/17 13:58:09;;;;;;;4.95;2.97;;;21.10;68.20;;;;;;5075899;28;20482;-47
2021/06/17 14:00:37;;;;;;;5.57;3.30;;;21.10;68.30;;;;;;5074342;28;20131;-47
2021/06/17 14:03:03;;;;;;;4.60;3.40;;;21.10;68.20;;;;;;5074979;28;20028;-48
2021/06/17 14:05:29;;;;;;;6.70;2.10;;;21.10;68.40;;;;;;5075633;28;20078;-48
2021/06/17 14:07:56;;;;;;;4.65;3.38;;;21.20;68.40;;;;;;5075603;28;20036;-48
2021/06/17 14:10:23;;;;;;;3.72;2.60;;;21.20;68.10;;;;;;5074710;28;20409;-48
2021/06/17 14:12:49;;;;;;;4.40;3.22;;;21.20;68.80;;;;;;5073644;28;20024;-48
2021/06/17 14:15:16;;;;;;;7.72;3.63;;;21.20;68.40;;;;;;5075581;28;20169;-48
2021/06/17 14:17:43;;;;;;;3.42;2.85;;;21.10;68.50;;;;;;5075702;28;20431;-48
2021/06/17 14:20:10;;;;;;;5.68;3.15;;;21.10;68.50;;;;;;5074903;28;20044;-48
2021/06/17 14:22:37;;;;;;;4.55;2.88;;;21.10;68.40;;;;;;5075227;28;20082;-48
2021/06/17 14:25:03;;;;;;;3.88;3.10;;;21.10;68.50;;;;;;5075365;28;20035;-48
2021/06/17 14:27:29;;;;;;;8.73;3.53;;;21.10;68.60;;;;;;5074809;28;20033;-48
2021/06/17 14:29:54;;;;;;;3.38;2.80;;;21.10;68.50;;;;;;5074873;28;20367;-48
2021/06/17 14:32:20;;;;;;;6.43;2.97;;;21.10;68.50;;;;;;5073119;28;20146;-48
2021/06/17 14:34:47;;;;;;;7.20;3.72;;;21.10;68.40;;;;;;5075441;28;20114;-48
2021/06/17 14:37:13;;;;;;;5.40;2.80;;;21.10;68.40;;;;;;5075210;28;20063;-48
2021/06/17 14:39:39;;;;;;;11.45;3.30;;;21.10;68.50;;;;;;5075405;28;20041;-48
2021/06/17 14:42:05;;;;;;;4.72;3.15;;;21.10;68.50;;;;;;5073409;28;20340;-48
2021/06/17 14:44:31;;;;;;;7.50;3.50;;;21.10;68.50;;;;;;5075683;28;20051;-47
2021/06/17 14:46:58;;;;;;;6.80;3.63;;;21.10;68.60;;;;;;5075038;28;20450;-47
2021/06/17 14:49:24;;;;;;;5.82;3.10;;;21.10;68.60;;;;;;5074921;28;20036;-48
2021/06/17 14:51:50;;;;;;;8.63;3.40;;;21.10;68.50;;;;;;5064076;28;20021;-48
2021/06/17 14:54:22;;;;;;;6.32;3.53;;;21.10;68.40;;;;;;5055128;28;20021;-48
2021/06/17 14:56:53;;;;;;;6.47;3.53;;;21.10;68.50;;;;;;5054802;28;20021;-48
2021/06/17 14:59:20;;;;;;;5.07;3.45;;;21.10;68.50;;;;;;5058323;28;20071;-48
2021/06/17 15:01:46;;;;;;;5.32;3.45;;;21.10;68.30;;;;;;5073321;28;20439;-48
2021/06/17 15:04:12;;;;;;;5.55;3.00;;;21.10;68.40;;;;;;5069024;28;20032;-47
2021/06/17 15:06:38;;;;;;;6.28;3.28;;;21.10;68.40;;;;;;5074686;28;20021;-47
2021/06/17 15:09:05;;;;;;;7.97;3.38;;;21.10;68.30;;;;;;5074777;28;20047;-48
2021/06/17 15:11:30;;;;;;;6.22;3.30;;;21.10;68.30;;;;;;5065225;28;20119;-48
2021/06/17 15:14:04;;;;;;;4.38;2.92;;;21.10;68.30;;;;;;5074521;28;20516;-48
2021/06/17 15:16:36;;;;;;;3.83;3.05;;;21.10;68.30;;;;;;5074494;28;20482;-47
2021/06/17 15:19:03;;;;;;;4.93;3.10;;;21.10;68.30;;;;;;5074701;28;20078;-48
2021/06/17 15:21:29;;;;;;;5.18;3.60;;;21.10;68.20;;;;;;5073947;28;20028;-47
2021/06/17 15:23:54;;;;;;;7.93;3.35;;;21.10;68.30;;;;;;5074615;28;20039;-47
2021/06/17 15:26:22;;;;;;;4.50;3.20;;;21.00;68.40;;;;;;5074301;28;20056;-47
2021/06/17 15:28:49;;;;;;;4.68;3.00;;;21.00;68.40;;;;;;5074645;28;20032;-48
2021/06/17 15:31:15;;;;;;;3.08;2.72;;;21.00;68.30;;;;;;5073853;28;20082;-48
2021/06/17 15:33:40;;;;;;;6.43;3.33;;;21.10;68.40;;;;;;5074622;28;20020;-48
2021/06/17 15:36:07;;;;;;;5.28;3.40;;;21.10;68.40;;;;;;5073809;28;20086;-48
2021/06/17 15:38:33;;;;;;;5.25;3.35;;;21.10;68.40;;;;;;5073830;28;20655;-48
2021/06/17 15:40:59;;;;;;;14.45;3.58;;;21.10;68.40;;;;;;5073311;28;20063;-48
2021/06/17 15:43:25;;;;;;;5.03;3.20;;;21.10;68.30;;;;;;5073312;28;20046;-48
2021/06/17 15:45:50;;;;;;;5.13;3.28;;;21.10;68.40;;;;;;5073942;28;20029;-48
2021/06/17 15:48:16;;;;;;;4.63;2.97;;;21.10;68.40;;;;;;5074077;28;20116;-48
2021/06/17 15:50:42;;;;;;;9.35;3.05;;;21.00;68.40;;;;;;5073261;28;20041;-47
2021/06/17 15:53:08;;;;;;;5.28;3.10;;;21.10;68.50;;;;;;5073089;28;20425;-48
2021/06/17 15:55:34;;;;;;;7.60;3.85;;;21.10;68.50;;;;;;5073730;28;20024;-48
2021/06/17 15:58:00;;;;;;;4.07;3.05;;;21.00;68.50;;;;;;5073597;28;20021;-48
2021/06/17 16:00:26;;;;;;;6.90;3.72;;;21.10;68.60;;;;;;5072910;28;20108;-48
2021/06/17 16:02:53;;;;;;;8.77;3.33;;;21.10;68.50;;;;;;5073594;28;20024;-48
2021/06/17 16:05:20;;;;;;;3.38;2.80;;;21.10;68.60;;;;;;5073567;28;20440;-48
2021/06/17 16:07:47;;;;;;;3.60;3.10;;;21.10;68.50;;;;;;5073530;28;20036;-47
2021/06/17 16:10:15;;;;;;;7.97;3.28;;;21.10;68.50;;;;;;5072572;28;20481;-48
2021/06/17 16:12:41;;;;;;;10.80;3.88;;;21.10;68.50;;;;;;5073138;28;20040;-47
2021/06/17 16:15:07;;;;;;;3.55;3.20;;;21.10;68.50;;;;;;5073643;28;20029;-48
2021/06/17 16:17:33;;;;;;;7.38;3.45;;;21.00;68.40;;;;;;5073346;28;20081;-47
2021/06/17 16:19:59;;;;;;;8.52;3.17;;;21.10;68.50;;;;;;5073742;28;20111;-47
2021/06/17 16:22:24;;;;;;;6.95;3.58;;;21.00;68.40;;;;;;5072397;28;20386;-48
2021/06/17 16:24:50;;;;;;;3.90;3.13;;;21.10;68.50;;;;;;5072830;28;20017;-47
2021/06/17 16:27:16;;;;;;;8.65;3.80;;;21.10;68.50;;;;;;5073113;28;20090;-48
2021/06/17 16:29:42;;;;;;;5.25;2.83;;;21.10;68.50;;;;;;5073602;28;20116;-48
2021/06/17 16:32:08;;;;;;;4.78;3.10;;;21.10;68.40;;;;;;5072283;28;20028;-48
2021/06/17 16:34:34;;;;;;;4.85;3.13;;;21.10;68.30;;;;;;5073107;28;20074;-49
2021/06/17 16:37:00;;;;;;;7.57;3.67;;;21.10;68.40;;;;;;5070863;28;20021;-49
2021/06/17 16:39:25;;;;;;;4.68;3.28;;;21.90;66.00;;;;;;5052498;28;20024;-49
2021/06/17 16:41:51;;;;;;;10.73;3.88;;;22.20;63.90;;;;;;5052260;28;20029;-49
2021/06/17 16:44:19;;;;;;;7.80;3.05;;;22.50;63.20;;;;;;5053253;28;20398;-49
2021/06/17 16:46:50;;;;;;;8.65;4.05;;;22.60;62.80;;;;;;5053348;28;20025;-49
2021/06/17 16:49:17;;;;;;;8.20;3.88;;;22.50;63.30;;;;;;5055076;28;20029;-49
2021/06/17 16:51:42;;;;;;;8.02;3.53;;;22.50;63.10;;;;;;5055920;28;20455;-49
2021/06/17 16:54:08;;;;;;;6.22;3.42;;;22.50;62.80;;;;;;5061840;28;20027;-49
2021/06/17 16:56:35;;;;;;;6.43;4.22;;;22.60;62.10;;;;;;5069268;28;20025;-49
2021/06/17 16:59:01;;;;;;;11.15;2.85;;;22.60;61.60;;;;;;5072887;28;20414;-49
2021/06/17 17:01:27;;;;;;;5.80;2.53;;;22.70;61.60;;;;;;5063293;28;20439;-49
2021/06/17 17:03:52;;;;;;;6.65;3.35;;;22.70;61.70;;;;;;5064400;28;20371;-49
2021/06/17 17:06:20;;;;;;;9.02;2.55;;;22.60;61.60;;;;;;5059478;28;20017;-49
2021/06/17 17:08:46;;;;;;;5.05;3.33;;;22.70;61.40;;;;;;5052824;28;20079;-49
2021/06/17 17:11:11;;;;;;;4.85;2.80;;;22.60;61.40;;;;;;5051525;28;20441;-49
2021/06/17 17:13:37;;;;;;;2.97;2.47;;;22.60;61.40;;;;;;5069713;28;20051;-49
2021/06/17 17:16:02;;;;;;;3.15;2.55;;;22.70;61.30;;;;;;5072648;28;20036;-49
2021/06/17 17:18:28;;;;;;;5.32;2.63;;;22.60;60.90;;;;;;5072510;28;20025;-49
2021/06/17 17:20:53;;;;;;;9.70;3.15;;;22.60;60.90;;;;;;5072148;28;20458;-49
2021/06/17 17:23:19;;;;;;;18.38;2.95;;;22.60;60.90;;;;;;5072909;28;20388;-49
2021/06/17 17:25:46;;;;;;;8.60;2.58;;;22.60;61.00;;;;;;5072341;28;20078;-49
2021/06/17 17:28:12;;;;;;;5.55;2.60;;;22.70;60.90;;;;;;5072231;28;20028;-49
2021/06/17 17:30:38;;;;;;;4.05;2.17;;;22.70;60.60;;;;;;5072051;28;20032;-49
2021/06/17 17:33:04;;;;;;;6.30;2.75;;;22.60;60.20;;;;;;5072891;28;20028;-49
2021/06/17 17:35:30;;;;;;;13.10;2.50;;;22.60;59.90;;;;;;5072609;28;20031;-49
2021/06/17 17:37:56;;;;;;;9.20;2.28;;;22.60;59.90;;;;;;5072166;28;20375;-48
2021/06/17 17:40:22;;;;;;;5.15;2.58;;;22.60;59.60;;;;;;5071744;28;20389;-49
2021/06/17 17:42:48;;;;;;;4.85;2.65;;;22.50;59.50;;;;;;5072532;28;20028;-49
2021/06/17 17:45:13;;;;;;;11.50;3.03;;;22.50;59.80;;;;;;5072505;28;20407;-49
2021/06/17 17:47:40;;;;;;;5.35;2.70;;;22.50;60.10;;;;;;5072735;28;20111;-49
2021/06/17 17:50:09;;;;;;;4.15;2.53;;;22.50;60.10;;;;;;5071495;28;20447;-49
2021/06/17 17:52:37;;;;;;;5.72;3.05;;;22.50;60.20;;;;;;5072404;28;20024;-49
2021/06/17 17:55:09;;;;;;;4.72;2.58;;;22.60;60.30;;;;;;5072553;28;20024;-49
2021/06/17 17:57:35;;;;;;;8.23;2.58;;;22.50;60.00;;;;;;5071590;28;20036;-49
2021/06/17 18:00:02;;;;;;;4.25;2.75;;;22.50;60.10;;;;;;5068313;28;20024;-49
2021/06/17 18:02:27;;;;;;;9.48;3.53;;;22.50;59.80;;;;;;5067429;28;20039;-49
2021/06/17 18:04:53;;;;;;;4.18;2.72;;;22.50;60.60;;;;;;5067114;28;20032;-49
2021/06/17 18:07:18;;;;;;;7.75;4.45;;;22.50;59.90;;;;;;5067672;28;20432;-49
2021/06/17 18:09:44;;;;;;;5.30;3.42;;;22.50;60.00;;;;;;5063329;28;20349;-49
2021/06/17 18:12:11;;;;;;;11.68;2.60;;;22.60;59.80;;;;;;5065649;28;20017;-49
2021/06/17 18:14:37;;;;;;;4.28;2.83;;;22.50;59.80;;;;;;5062902;28;20051;-49